createdAt,value
2022-12-01T00:00:27.896Z,102397.19
2022-12-01T00:04:39.332Z,102401.19
2022-12-01T00:09:14.041Z,102395.69
2022-12-01T00:13:28.203Z,102399.00
2022-12-01T00:17:40.114Z,102401.38
2022-12-01T00:21:51.580Z,102404.03
2022-12-01T00:26:04.981Z,102396.34
2022-12-01T00:30:18.240Z,102392.69
2022-12-01T00:34:29.753Z,102392.69
2022-12-01T00:38:41.207Z,102393.00
2022-12-01T00:42:52.817Z,102381.47
2022-12-01T00:47:04.435Z,102395.19
2022-12-01T00:51:15.969Z,102393.00
2022-12-01T00:55:27.493Z,102392.47
2022-12-01T00:59:39.055Z,102397.50
2022-12-01T01:03:50.539Z,102393.16
2022-12-01T01:08:02.073Z,102395.28
2022-12-01T01:12:13.616Z,102390.47
2022-12-01T01:16:25.163Z,102393.63
2022-12-01T01:20:36.895Z,102399.78
2022-12-01T01:24:48.449Z,102399.13
2022-12-01T01:29:02.392Z,102398.59
2022-12-01T01:33:14.007Z,102403.59
2022-12-01T01:37:25.627Z,102403.75
2022-12-01T01:41:37.323Z,102412.63
2022-12-01T01:45:48.865Z,102403.06
2022-12-01T01:50:09.222Z,102414.47
2022-12-01T01:54:28.485Z,102420.78
2022-12-01T01:58:41.436Z,102410.31
2022-12-01T02:02:53.773Z,102407.78
2022-12-01T02:07:05.954Z,102412.44
2022-12-01T02:11:33.932Z,102407.94
2022-12-01T02:15:51.516Z,102422.28
2022-12-01T02:20:12.344Z,102422.81
2022-12-01T02:24:48.779Z,102415.94
2022-12-01T02:29:38.380Z,102412.97
2022-12-01T02:33:58.623Z,102391.84
2022-12-01T02:38:30.208Z,102405.28
2022-12-01T02:43:06.225Z,102415.28
2022-12-01T02:47:19.630Z,102410.44
2022-12-01T02:51:34.434Z,102402.44
2022-12-01T02:55:48.080Z,102403.44
2022-12-01T03:00:00.671Z,102407.44
2022-12-01T03:04:46.277Z,102409.81
2022-12-01T03:09:10.164Z,102414.00
2022-12-01T03:13:33.593Z,102416.97
2022-12-01T03:17:58.701Z,102416.97
2022-12-01T03:22:22.932Z,102424.53
2022-12-01T03:26:37.408Z,102416.50
2022-12-01T03:30:53.758Z,102412.84
2022-12-01T03:35:14.496Z,102403.16
2022-12-01T03:39:33.201Z,102411.84
2022-12-01T03:43:51.868Z,102398.66
2022-12-01T03:48:03.590Z,102408.50
2022-12-01T03:52:18.309Z,102405.78
2022-12-01T03:56:37.120Z,102409.13
2022-12-01T04:00:53.210Z,102408.78
2022-12-01T04:05:09.378Z,102425.31
2022-12-01T04:09:21.018Z,102426.47
2022-12-01T04:13:33.144Z,102429.84
2022-12-01T04:17:45.061Z,102426.13
2022-12-01T04:21:56.703Z,102416.97
2022-12-01T04:26:14.270Z,102420.66
2022-12-01T04:30:27.246Z,102429.03
2022-12-01T04:34:39.180Z,102436.38
2022-12-01T04:38:50.841Z,102423.16
2022-12-01T04:43:02.377Z,102414.63
2022-12-01T04:47:13.894Z,102415.25
2022-12-01T04:51:25.508Z,102413.97
2022-12-01T04:55:39.175Z,102412.91
2022-12-01T04:59:51.001Z,102413.38
2022-12-01T05:04:03.132Z,102409.13
2022-12-01T05:08:14.713Z,102414.41
2022-12-01T05:12:26.572Z,102403.38
2022-12-01T05:16:38.178Z,102424.88
2022-12-01T05:20:59.046Z,102402.56
2022-12-01T05:25:10.770Z,102416.59
2022-12-01T05:29:22.321Z,102419.56
2022-12-01T05:33:33.868Z,102423.44
2022-12-01T05:37:45.382Z,102435.50
2022-12-01T05:41:57.150Z,102423.44
2022-12-01T05:46:08.812Z,102420.16
2022-12-01T05:50:20.548Z,102421.75
2022-12-01T05:54:32.843Z,102433.97
2022-12-01T05:58:44.415Z,102425.50
2022-12-01T06:02:55.979Z,102423.28
2022-12-01T06:07:07.555Z,102425.59
2022-12-01T06:11:19.087Z,102432.63
2022-12-01T06:15:30.748Z,102422.69
2022-12-01T06:19:43.479Z,102438.25
2022-12-01T06:23:55.101Z,102441.63
2022-12-01T06:28:06.632Z,102448.25
2022-12-01T06:32:18.252Z,102448.25
2022-12-01T06:36:29.767Z,102456.09
2022-12-01T06:40:43.281Z,102447.84
2022-12-01T06:44:54.820Z,102453.19
2022-12-01T06:49:06.633Z,102450.22
2022-12-01T06:53:18.214Z,102446.19
2022-12-01T06:57:30.313Z,102454.03
2022-12-01T07:01:42.047Z,102457.00
2022-12-01T07:05:58.679Z,102464.31
2022-12-01T07:10:11.187Z,102469.50
2022-12-01T07:14:26.600Z,102472.88
2022-12-01T07:18:38.847Z,102469.97
2022-12-01T07:22:50.427Z,102467.75
2022-12-01T07:27:02.023Z,102478.84
2022-12-01T07:31:18.796Z,102477.66
2022-12-01T07:35:30.411Z,102475.53
2022-12-01T07:39:42.037Z,102476.91
2022-12-01T07:43:55.372Z,102468.91
2022-12-01T07:48:07.073Z,102481.25
2022-12-01T07:52:18.763Z,102485.81
2022-12-01T07:56:31.296Z,102489.03
2022-12-01T08:00:43.083Z,102486.22
2022-12-01T08:04:54.685Z,102486.84
2022-12-01T08:09:06.399Z,102492.09
2022-12-01T08:13:17.980Z,102500.94
2022-12-01T08:17:29.627Z,102513.34
2022-12-01T08:21:41.252Z,102500.19
2022-12-01T08:25:52.868Z,102488.47
2022-12-01T08:30:05.419Z,102499.00
2022-12-01T08:34:17.079Z,102490.53
2022-12-01T08:38:28.578Z,102519.91
2022-12-01T08:42:40.219Z,102500.31
2022-12-01T08:46:52.030Z,102518.59
2022-12-01T08:51:18.345Z,102508.47
2022-12-01T08:55:29.926Z,102516.31
2022-12-01T08:59:41.539Z,102511.31
2022-12-01T09:04:05.649Z,102523.06
2022-12-01T09:08:33.104Z,102517.03
2022-12-01T09:12:44.640Z,102526.28
2022-12-01T09:16:56.225Z,102522.81
2022-12-01T09:21:17.341Z,102528.94
2022-12-01T09:25:30.905Z,102516.63
2022-12-01T09:29:42.446Z,102522.91
2022-12-01T09:33:59.293Z,102519.94
2022-12-01T09:38:10.832Z,102507.09
2022-12-01T09:42:30.918Z,102522.69
2022-12-01T09:46:49.141Z,102513.50
2022-12-01T09:51:01.094Z,102516.06
2022-12-01T09:55:15.125Z,102520.22
2022-12-01T09:59:32.679Z,102519.06
2022-12-01T10:03:49.965Z,102508.19
2022-12-01T10:08:11.884Z,102514.59
2022-12-01T10:12:27.808Z,102505.56
2022-12-01T10:16:52.946Z,102507.41
2022-12-01T10:21:11.909Z,102501.03
2022-12-01T10:25:26.612Z,102501.56
2022-12-01T10:30:09.287Z,102495.69
2022-12-01T10:34:24.983Z,102484.47
2022-12-01T10:38:38.247Z,102489.03
2022-12-01T10:42:50.970Z,102490.03
2022-12-01T10:47:03.158Z,102472.63
2022-12-01T10:51:17.563Z,102465.59
2022-12-01T10:55:34.414Z,102471.66
2022-12-01T11:00:05.826Z,102471.84
2022-12-01T11:04:44.923Z,102468.16
2022-12-01T11:09:02.684Z,102468.47
2022-12-01T11:13:19.200Z,102467.28
2022-12-01T11:17:33.291Z,102465.03
2022-12-01T11:21:50.515Z,102463.47
2022-12-01T11:26:23.782Z,102452.50
2022-12-01T11:30:35.374Z,102471.25
2022-12-01T11:35:19.321Z,102457.19
2022-12-01T11:39:40.203Z,102450.06
2022-12-01T11:44:01.145Z,102444.06
2022-12-01T11:48:15.410Z,102455.41
2022-12-01T11:52:30.138Z,102452.97
2022-12-01T11:56:44.084Z,102441.94
2022-12-01T12:00:57.939Z,102418.03
2022-12-01T12:05:27.877Z,102444.50
2022-12-01T12:10:02.932Z,102414.06
2022-12-01T12:14:32.060Z,102416.72
2022-12-01T12:18:52.919Z,102427.78
2022-12-01T12:23:31.900Z,102433.31
2022-12-01T12:27:54.882Z,102421.75
2022-12-01T12:32:31.231Z,102416.91
2022-12-01T12:37:01.776Z,102404.50
2022-12-01T12:41:21.532Z,102423.91
2022-12-01T12:46:18.143Z,102412.28
2022-12-01T12:51:02.038Z,102411.34
2022-12-01T12:55:25.202Z,102404.72
2022-12-01T12:59:54.183Z,102398.25
2022-12-01T13:04:38.177Z,102409.00
2022-12-01T13:08:58.259Z,102405.41
2022-12-01T13:13:24.814Z,102381.91
2022-12-01T13:17:41.737Z,102398.66
2022-12-01T13:21:54.150Z,102376.75
2022-12-01T13:26:09.672Z,102389.16
2022-12-01T13:30:24.777Z,102390.97
2022-12-01T13:34:41.940Z,102387.13
2022-12-01T13:39:05.841Z,102375.91
2022-12-01T13:43:20.842Z,102363.53
2022-12-01T13:47:47.699Z,102350.13
2022-12-01T13:52:18.188Z,102385.97
2022-12-01T13:57:00.785Z,102371.72
2022-12-01T14:01:22.085Z,102379.94
2022-12-01T14:05:40.613Z,102398.66
2022-12-01T14:09:56.698Z,102355.31
2022-12-01T14:14:25.776Z,102385.63
2022-12-01T14:18:44.170Z,102391.31
2022-12-01T14:23:15.533Z,102375.56
2022-12-01T14:27:39.913Z,102396.66
2022-12-01T14:31:51.441Z,102399.69
2022-12-01T14:36:06.839Z,102383.25
2022-12-01T14:40:23.667Z,102392.66
2022-12-01T14:44:49.303Z,102363.84
2022-12-01T14:49:03.727Z,102382.94
2022-12-01T14:53:23.638Z,102392.44
2022-12-01T14:57:44.134Z,102391.13
2022-12-01T15:01:58.489Z,102397.31
2022-12-01T15:06:15.896Z,102388.09
2022-12-01T15:10:37.208Z,102395.28
2022-12-01T15:14:49.762Z,102391.75
2022-12-01T15:19:01.622Z,102397.13
2022-12-01T15:23:16.157Z,102384.75
2022-12-01T15:27:31.078Z,102399.81
2022-12-01T15:31:46.697Z,102362.28
2022-12-01T15:36:00.458Z,102396.78
2022-12-01T15:45:22.579Z,102399.44
2022-12-01T15:49:39.195Z,102399.28
2022-12-01T15:53:58.193Z,102398.94
2022-12-01T15:58:19.884Z,102386.19
2022-12-01T16:02:33.562Z,102392.91
2022-12-01T16:06:55.489Z,102386.38
2022-12-01T16:11:18.187Z,102395.22
2022-12-01T16:15:29.838Z,102393.38
2022-12-01T16:19:43.543Z,102410.94
2022-12-01T16:24:22.347Z,102402.94
2022-12-01T16:28:37.929Z,102393.22
2022-12-01T16:32:49.803Z,102398.41
2022-12-01T16:37:01.401Z,102410.47
2022-12-01T16:41:18.387Z,102397.91
2022-12-01T16:45:30.118Z,102389.72
2022-12-01T16:49:41.904Z,102404.94
2022-12-01T16:53:55.112Z,102389.88
2022-12-01T16:58:06.739Z,102387.19
2022-12-01T17:02:18.466Z,102394.88
2022-12-01T17:06:30.188Z,102384.16
2022-12-01T17:10:43.748Z,102385.31
2022-12-01T17:14:55.377Z,102386.63
2022-12-01T17:19:06.996Z,102394.50
2022-12-01T17:23:18.567Z,102397.34
2022-12-01T17:27:31.532Z,102384.78
2022-12-01T17:31:43.290Z,102386.63
2022-12-01T17:35:55.014Z,102388.78
2022-12-01T17:40:08.707Z,102388.09
2022-12-01T17:44:21.596Z,102415.22
2022-12-01T17:48:41.951Z,102410.84
2022-12-01T17:52:53.589Z,102408.00
2022-12-01T17:57:07.327Z,102403.50
2022-12-01T18:01:24.116Z,102413.91
2022-12-01T18:05:38.465Z,102405.75
2022-12-01T18:09:50.034Z,102407.06
2022-12-01T18:14:01.549Z,102415.09
2022-12-01T18:18:13.247Z,102399.38
2022-12-01T18:22:24.723Z,102408.56
2022-12-01T18:26:38.164Z,102411.22
2022-12-01T18:30:49.728Z,102407.19
2022-12-01T18:35:01.212Z,102405.88
2022-12-01T18:39:12.942Z,102401.00
2022-12-01T18:43:25.597Z,102406.34
2022-12-01T18:47:37.071Z,102400.84
2022-12-01T18:51:48.551Z,102404.81
2022-12-01T18:56:10.294Z,102397.97
2022-12-01T19:00:23.309Z,102394.09
2022-12-01T19:04:36.021Z,102398.44
2022-12-01T19:08:47.877Z,102394.91
2022-12-01T19:12:59.369Z,102395.44
2022-12-01T19:17:11.202Z,102397.03
2022-12-01T19:21:23.045Z,102405.59
2022-12-01T19:25:36.482Z,102389.50
2022-12-01T19:29:49.807Z,102414.38
2022-12-01T19:34:01.681Z,102401.88
2022-12-01T19:38:13.302Z,102399.00
2022-12-01T19:42:25.075Z,102395.81
2022-12-01T19:46:36.692Z,102402.53
2022-12-01T19:50:48.246Z,102416.56
2022-12-01T19:54:59.891Z,102410.38
2022-12-01T19:59:13.397Z,102416.72
2022-12-01T20:03:24.896Z,102404.00
2022-12-01T20:07:36.478Z,102412.69
2022-12-01T20:11:47.999Z,102411.00
2022-12-01T20:16:08.802Z,102411.31
2022-12-01T20:20:20.419Z,102410.31
2022-12-01T20:24:31.986Z,102405.34
2022-12-01T20:28:45.426Z,102415.59
2022-12-01T20:32:56.956Z,102405.59
2022-12-01T20:37:08.591Z,102413.28
2022-12-01T20:41:20.631Z,102402.41
2022-12-01T20:45:32.172Z,102400.03
2022-12-01T20:49:44.213Z,102397.69
2022-12-01T20:54:26.373Z,102397.19
2022-12-01T20:58:27.222Z,102397.50
2022-12-01T21:02:39.451Z,102389.41
2022-12-01T21:06:51.192Z,102390.75
2022-12-01T21:11:19.158Z,102389.91
2022-12-01T21:15:36.573Z,102385.88
2022-12-01T21:20:21.995Z,102390.91
2022-12-01T21:24:37.999Z,102380.84
2022-12-01T21:28:58.296Z,102372.00
2022-12-01T21:33:21.924Z,102378.34
2022-12-01T21:37:33.860Z,102351.41
2022-12-01T21:41:45.401Z,102345.75
2022-12-01T21:46:06.596Z,102348.13
2022-12-01T21:50:23.308Z,102352.63
2022-12-01T21:54:34.945Z,102334.25
2022-12-01T21:58:46.706Z,102343.41
2022-12-01T22:03:25.551Z,102354.78
2022-12-01T22:07:37.358Z,102356.41
2022-12-01T22:11:57.206Z,102359.75
2022-12-01T22:16:28.571Z,102362.94
2022-12-01T22:20:40.148Z,102345.72
2022-12-01T22:24:54.171Z,102358.63
2022-12-01T22:29:45.453Z,102360.25
2022-12-01T22:34:03.548Z,102351.06
2022-12-01T22:38:35.579Z,102355.25
2022-12-01T22:42:47.108Z,102331.31
2022-12-01T22:47:02.105Z,102336.34
2022-12-01T22:51:13.969Z,102349.78
2022-12-01T22:55:25.557Z,102335.66
2022-12-01T22:59:43.086Z,102352.06
2022-12-01T23:04:19.221Z,102348.50
2022-12-01T23:08:30.756Z,102347.47
2022-12-01T23:12:43.904Z,102332.91
2022-12-01T23:17:07.730Z,102334.69
2022-12-01T23:21:19.348Z,102338.66
2022-12-01T23:25:31.549Z,102331.88
2022-12-01T23:29:43.187Z,102328.63
2022-12-01T23:33:54.863Z,102346.78
2022-12-01T23:38:13.260Z,102335.66
2022-12-01T23:42:24.790Z,102332.06
2022-12-01T23:46:36.833Z,102326.75
2022-12-01T23:50:53.600Z,102322.00
2022-12-01T23:55:16.795Z,102324.13
2022-12-01T23:59:30.029Z,102315.09
